createdAt,value
2022-10-02T07:25:40.769Z,98028.00
2022-10-02T07:31:07.234Z,98009.00
2022-10-02T07:36:23.441Z,98015.00
2022-10-02T07:41:52.359Z,98027.00
2022-10-02T07:47:05.231Z,98025.00
2022-10-02T07:52:40.472Z,98029.00
2022-10-02T07:58:12.744Z,98024.00
2022-10-02T08:03:41.394Z,98028.00
2022-10-02T08:09:00.980Z,98026.00
2022-10-02T08:14:09.306Z,98024.00
2022-10-02T08:19:25.216Z,98027.00
2022-10-02T08:24:35.788Z,98031.00
2022-10-02T08:29:45.187Z,98032.00
2022-10-02T08:34:48.170Z,98051.00
2022-10-02T08:40:25.743Z,98057.00
2022-10-02T08:45:56.572Z,98048.00
2022-10-02T08:51:35.951Z,98041.00
2022-10-02T08:57:26.226Z,98039.00
2022-10-02T09:03:02.812Z,98035.00
2022-10-02T09:08:42.961Z,98029.00
2022-10-02T09:14:10.219Z,98041.00
2022-10-02T09:19:41.894Z,98031.00
2022-10-02T09:24:53.854Z,98031.00
2022-10-02T09:30:18.418Z,98028.00
2022-10-02T09:35:29.881Z,98043.00
2022-10-02T09:40:47.439Z,98022.00
2022-10-02T09:45:52.940Z,98035.00
2022-10-02T09:51:08.005Z,98034.00
2022-10-02T09:56:50.557Z,98016.00
2022-10-02T10:02:20.411Z,98017.00
2022-10-02T10:07:36.714Z,98015.00
2022-10-02T10:12:58.028Z,98021.00
2022-10-02T10:18:09.978Z,98014.00
2022-10-02T10:24:07.901Z,98024.00
2022-10-02T10:29:39.078Z,98009.00
2022-10-02T10:35:06.004Z,98015.00
2022-10-02T10:40:15.814Z,98035.00
2022-10-02T10:45:30.285Z,98043.00
2022-10-02T10:51:03.357Z,98057.00
2022-10-02T10:56:37.178Z,98063.00
2022-10-02T11:02:17.623Z,98067.00
2022-10-02T11:07:23.069Z,98055.00
2022-10-02T11:12:36.371Z,98058.00
2022-10-02T11:18:14.694Z,98062.00
2022-10-02T11:23:29.307Z,98061.00
2022-10-02T11:28:48.047Z,98054.00
2022-10-02T11:34:03.363Z,98028.00
2022-10-02T11:39:25.448Z,98010.00
2022-10-02T11:44:40.028Z,98013.00
2022-10-02T11:50:10.601Z,98017.00
2022-10-02T11:55:28.850Z,98017.00
2022-10-02T12:00:40.518Z,98005.00
2022-10-02T12:06:48.095Z,98005.00
2022-10-02T12:12:01.924Z,97995.00
2022-10-02T12:17:27.957Z,97982.00
2022-10-02T12:23:12.588Z,97986.00
2022-10-02T12:28:44.404Z,97992.00
2022-10-02T12:34:28.031Z,97999.00
2022-10-02T12:39:36.563Z,97992.00
2022-10-02T12:45:00.852Z,97986.00
2022-10-02T12:50:16.464Z,97987.00
2022-10-02T12:55:38.587Z,97978.00
2022-10-02T13:00:59.369Z,97982.00
2022-10-02T13:06:23.970Z,97984.00
2022-10-02T13:11:44.934Z,97984.00
2022-10-02T13:17:10.243Z,97985.00
2022-10-02T13:22:44.567Z,97982.00
2022-10-02T13:27:53.248Z,97971.00
2022-10-02T13:33:13.947Z,97982.00
2022-10-02T13:39:02.446Z,97979.00
2022-10-02T13:44:30.059Z,97978.00
2022-10-02T13:49:35.559Z,97973.00
2022-10-02T13:55:10.754Z,97984.00
2022-10-02T14:00:23.790Z,97986.00
2022-10-02T14:05:57.649Z,97996.00
2022-10-02T14:11:23.388Z,97988.00
2022-10-02T14:16:44.653Z,97998.00
2022-10-02T14:22:08.798Z,97995.00
2022-10-02T14:27:41.455Z,97986.00
2022-10-02T14:33:02.693Z,97982.00
2022-10-02T14:38:20.293Z,97993.00
2022-10-02T14:43:51.723Z,97993.00
2022-10-02T14:49:13.044Z,98000.00
2022-10-02T14:54:44.204Z,98007.00
2022-10-02T15:00:03.321Z,98008.00
2022-10-02T15:05:27.195Z,98010.00
2022-10-02T15:10:38.506Z,98010.00
2022-10-02T15:16:12.861Z,98014.00
2022-10-02T15:21:34.456Z,98026.00
2022-10-02T15:26:46.702Z,98032.00
2022-10-02T15:32:08.159Z,98023.00
2022-10-02T15:37:25.851Z,98025.00
2022-10-02T15:42:51.210Z,98037.00
2022-10-02T15:48:29.182Z,98049.00
2022-10-02T15:53:55.024Z,98049.00
2022-10-02T15:59:16.614Z,98042.00
2022-10-02T16:04:48.952Z,98058.00
2022-10-02T16:10:02.519Z,98057.00
2022-10-02T16:15:20.218Z,98054.00
2022-10-02T16:20:47.957Z,98055.00
2022-10-02T16:26:31.717Z,98062.00
2022-10-02T16:31:34.468Z,98069.00
2022-10-02T16:36:52.988Z,98084.00
2022-10-02T16:42:04.832Z,98095.00
2022-10-02T16:47:35.997Z,98103.00
2022-10-02T16:52:45.581Z,98108.00
2022-10-02T16:57:52.708Z,98111.00
2022-10-02T17:03:30.447Z,98131.00
2022-10-02T17:08:54.004Z,98131.00
2022-10-02T17:13:57.311Z,98120.00
2022-10-02T17:19:17.819Z,98128.00
2022-10-02T17:24:47.574Z,98143.00
2022-10-02T17:29:59.251Z,98159.00
2022-10-02T17:35:02.691Z,98152.00
2022-10-02T17:40:21.818Z,98148.00
2022-10-02T17:45:26.622Z,98159.00
2022-10-02T17:51:01.891Z,98159.00
2022-10-02T17:56:29.493Z,98163.00
2022-10-02T18:02:00.247Z,98175.00
2022-10-02T18:07:41.691Z,98179.00
2022-10-02T18:13:01.493Z,98182.00
2022-10-02T18:18:23.113Z,98204.00
2022-10-02T18:23:59.248Z,98214.00
2022-10-02T18:29:29.576Z,98211.00
2022-10-02T18:34:58.685Z,98223.00
2022-10-02T18:40:16.729Z,98224.00
2022-10-02T18:45:27.400Z,98227.00
2022-10-02T18:51:06.655Z,98222.00
2022-10-02T18:56:12.442Z,98236.00
2022-10-02T19:01:23.602Z,98239.00
2022-10-02T19:07:06.243Z,98236.00
